sensor_id;sensor_type;location;lat;lon;timestamp;P1;durP1;ratioP1;P2;durP2;ratioP2
72590;SDS011;60625;51.212;5.952;2024-01-06T00:01:44;23.80;;;12.50;;
72590;SDS011;60625;51.212;5.952;2024-01-06T00:06:44;22.00;;;11.90;;
72590;SDS011;60625;51.212;5.952;2024-01-06T00:11:45;22.10;;;11.40;;
72590;SDS011;60625;51.212;5.952;2024-01-06T00:16:45;20.70;;;11.70;;
72590;SDS011;60625;51.212;5.952;2024-01-06T00:21:45;22.80;;;12.60;;
72590;SDS011;60625;51.212;5.952;2024-01-06T00:26:46;23.60;;;12.70;;
72590;SDS011;60625;51.212;5.952;2024-01-06T00:31:47;25.10;;;13.30;;
72590;SDS011;60625;51.212;5.952;2024-01-06T00:36:47;22.40;;;13.40;;
72590;SDS011;60625;51.212;5.952;2024-01-06T00:41:47;25.70;;;13.30;;
72590;SDS011;60625;51.212;5.952;2024-01-06T00:46:48;27.10;;;13.40;;
72590;SDS011;60625;51.212;5.952;2024-01-06T00:51:48;28.80;;;13.90;;
72590;SDS011;60625;51.212;5.952;2024-01-06T00:56:49;27.20;;;14.30;;
72590;SDS011;60625;51.212;5.952;2024-01-06T01:01:49;27.60;;;14.50;;
72590;SDS011;60625;51.212;5.952;2024-01-06T01:06:50;32.00;;;15.30;;
72590;SDS011;60625;51.212;5.952;2024-01-06T01:11:51;29.30;;;15.10;;
72590;SDS011;60625;51.212;5.952;2024-01-06T01:16:51;33.50;;;15.40;;
72590;SDS011;60625;51.212;5.952;2024-01-06T01:21:52;28.20;;;13.70;;
72590;SDS011;60625;51.212;5.952;2024-01-06T01:26:55;28.30;;;15.20;;
72590;SDS011;60625;51.212;5.952;2024-01-06T01:31:56;29.60;;;15.30;;
72590;SDS011;60625;51.212;5.952;2024-01-06T01:36:56;29.40;;;14.20;;
72590;SDS011;60625;51.212;5.952;2024-01-06T01:41:57;29.40;;;14.80;;
72590;SDS011;60625;51.212;5.952;2024-01-06T01:46:58;26.20;;;13.70;;
72590;SDS011;60625;51.212;5.952;2024-01-06T01:51:58;26.80;;;14.30;;
72590;SDS011;60625;51.212;5.952;2024-01-06T01:56:59;33.60;;;15.00;;
72590;SDS011;60625;51.212;5.952;2024-01-06T02:02:02;25.50;;;13.40;;
72590;SDS011;60625;51.212;5.952;2024-01-06T02:07:02;29.50;;;15.00;;
72590;SDS011;60625;51.212;5.952;2024-01-06T02:12:03;27.30;;;14.60;;
72590;SDS011;60625;51.212;5.952;2024-01-06T02:17:04;25.80;;;13.80;;
72590;SDS011;60625;51.212;5.952;2024-01-06T02:22:04;26.00;;;13.60;;
72590;SDS011;60625;51.212;5.952;2024-01-06T02:27:05;23.00;;;12.30;;
72590;SDS011;60625;51.212;5.952;2024-01-06T02:32:05;23.10;;;11.70;;
72590;SDS011;60625;51.212;5.952;2024-01-06T02:37:06;23.50;;;12.90;;
72590;SDS011;60625;51.212;5.952;2024-01-06T02:42:06;26.90;;;13.20;;
72590;SDS011;60625;51.212;5.952;2024-01-06T02:47:07;26.30;;;13.70;;
72590;SDS011;60625;51.212;5.952;2024-01-06T02:52:07;24.10;;;11.80;;
72590;SDS011;60625;51.212;5.952;2024-01-06T02:57:08;23.40;;;11.60;;
72590;SDS011;60625;51.212;5.952;2024-01-06T03:02:08;26.00;;;12.30;;
72590;SDS011;60625;51.212;5.952;2024-01-06T03:07:09;22.80;;;12.00;;
72590;SDS011;60625;51.212;5.952;2024-01-06T03:12:10;24.50;;;11.90;;
72590;SDS011;60625;51.212;5.952;2024-01-06T03:17:11;24.60;;;11.50;;
72590;SDS011;60625;51.212;5.952;2024-01-06T03:22:11;22.60;;;10.70;;
72590;SDS011;60625;51.212;5.952;2024-01-06T03:27:12;19.10;;;9.30;;
72590;SDS011;60625;51.212;5.952;2024-01-06T03:32:13;24.10;;;10.20;;
72590;SDS011;60625;51.212;5.952;2024-01-06T03:37:13;22.50;;;10.20;;
72590;SDS011;60625;51.212;5.952;2024-01-06T03:42:13;21.10;;;9.90;;
72590;SDS011;60625;51.212;5.952;2024-01-06T03:47:14;22.90;;;10.30;;
72590;SDS011;60625;51.212;5.952;2024-01-06T03:52:15;18.10;;;8.60;;
72590;SDS011;60625;51.212;5.952;2024-01-06T03:57:15;20.10;;;10.40;;
72590;SDS011;60625;51.212;5.952;2024-01-06T04:02:16;19.40;;;8.80;;
72590;SDS011;60625;51.212;5.952;2024-01-06T04:07:16;19.60;;;9.20;;
72590;SDS011;60625;51.212;5.952;2024-01-06T04:12:17;19.00;;;8.80;;
72590;SDS011;60625;51.212;5.952;2024-01-06T04:17:17;16.60;;;7.40;;
72590;SDS011;60625;51.212;5.952;2024-01-06T04:22:18;17.50;;;8.60;;
72590;SDS011;60625;51.212;5.952;2024-01-06T04:27:19;20.60;;;9.40;;
72590;SDS011;60625;51.212;5.952;2024-01-06T04:32:19;21.40;;;10.20;;
72590;SDS011;60625;51.212;5.952;2024-01-06T04:37:20;16.20;;;8.10;;
72590;SDS011;60625;51.212;5.952;2024-01-06T04:42:20;17.50;;;7.60;;
72590;SDS011;60625;51.212;5.952;2024-01-06T04:47:22;14.50;;;7.20;;
72590;SDS011;60625;51.212;5.952;2024-01-06T04:52:23;15.90;;;7.20;;
72590;SDS011;60625;51.212;5.952;2024-01-06T04:57:23;14.70;;;8.00;;
72590;SDS011;60625;51.212;5.952;2024-01-06T05:02:24;14.30;;;7.90;;
72590;SDS011;60625;51.212;5.952;2024-01-06T05:07:24;16.60;;;7.10;;
72590;SDS011;60625;51.212;5.952;2024-01-06T05:12:25;13.50;;;6.10;;
72590;SDS011;60625;51.212;5.952;2024-01-06T05:17:25;13.60;;;7.00;;
72590;SDS011;60625;51.212;5.952;2024-01-06T05:22:25;13.70;;;6.70;;
72590;SDS011;60625;51.212;5.952;2024-01-06T05:27:26;10.50;;;5.10;;
72590;SDS011;60625;51.212;5.952;2024-01-06T05:32:26;13.20;;;6.60;;
72590;SDS011;60625;51.212;5.952;2024-01-06T05:37:27;14.70;;;7.30;;
72590;SDS011;60625;51.212;5.952;2024-01-06T05:42:27;14.70;;;6.40;;
72590;SDS011;60625;51.212;5.952;2024-01-06T05:47:28;13.10;;;6.70;;
72590;SDS011;60625;51.212;5.952;2024-01-06T05:52:28;14.80;;;6.60;;
72590;SDS011;60625;51.212;5.952;2024-01-06T05:57:29;15.20;;;7.10;;
72590;SDS011;60625;51.212;5.952;2024-01-06T06:02:30;9.80;;;4.80;;
72590;SDS011;60625;51.212;5.952;2024-01-06T06:07:32;13.90;;;6.70;;
72590;SDS011;60625;51.212;5.952;2024-01-06T06:12:32;14.80;;;7.60;;
72590;SDS011;60625;51.212;5.952;2024-01-06T06:17:33;12.10;;;5.50;;
72590;SDS011;60625;51.212;5.952;2024-01-06T06:22:34;13.80;;;6.90;;
72590;SDS011;60625;51.212;5.952;2024-01-06T06:27:35;13.20;;;6.90;;
72590;SDS011;60625;51.212;5.952;2024-01-06T06:32:36;12.30;;;5.90;;
72590;SDS011;60625;51.212;5.952;2024-01-06T06:37:36;15.30;;;7.30;;
72590;SDS011;60625;51.212;5.952;2024-01-06T06:42:37;12.70;;;6.40;;
72590;SDS011;60625;51.212;5.952;2024-01-06T06:47:37;14.10;;;6.50;;
72590;SDS011;60625;51.212;5.952;2024-01-06T06:52:38;12.30;;;5.90;;
72590;SDS011;60625;51.212;5.952;2024-01-06T06:57:39;12.00;;;5.20;;
72590;SDS011;60625;51.212;5.952;2024-01-06T07:02:39;12.20;;;5.40;;
72590;SDS011;60625;51.212;5.952;2024-01-06T07:07:39;13.00;;;6.10;;
72590;SDS011;60625;51.212;5.952;2024-01-06T07:12:40;12.00;;;6.10;;
72590;SDS011;60625;51.212;5.952;2024-01-06T07:17:40;13.70;;;6.20;;
72590;SDS011;60625;51.212;5.952;2024-01-06T07:22:41;12.30;;;5.40;;
72590;SDS011;60625;51.212;5.952;2024-01-06T07:27:42;12.90;;;6.50;;
72590;SDS011;60625;51.212;5.952;2024-01-06T07:32:42;14.90;;;6.50;;
72590;SDS011;60625;51.212;5.952;2024-01-06T07:37:42;14.60;;;7.30;;
72590;SDS011;60625;51.212;5.952;2024-01-06T07:42:43;13.70;;;6.40;;
72590;SDS011;60625;51.212;5.952;2024-01-06T07:47:44;13.90;;;6.60;;
72590;SDS011;60625;51.212;5.952;2024-01-06T07:52:45;15.90;;;7.00;;
72590;SDS011;60625;51.212;5.952;2024-01-06T07:57:45;13.60;;;5.90;;
72590;SDS011;60625;51.212;5.952;2024-01-06T08:02:46;13.70;;;6.50;;
72590;SDS011;60625;51.212;5.952;2024-01-06T08:07:47;12.60;;;5.90;;
72590;SDS011;60625;51.212;5.952;2024-01-06T08:12:47;14.30;;;6.00;;
72590;SDS011;60625;51.212;5.952;2024-01-06T08:17:48;13.30;;;6.20;;
72590;SDS011;60625;51.212;5.952;2024-01-06T08:22:49;14.90;;;6.70;;
72590;SDS011;60625;51.212;5.952;2024-01-06T08:27:49;13.00;;;6.50;;
72590;SDS011;60625;51.212;5.952;2024-01-06T08:32:50;12.90;;;5.80;;
72590;SDS011;60625;51.212;5.952;2024-01-06T08:37:50;12.10;;;5.70;;
72590;SDS011;60625;51.212;5.952;2024-01-06T08:42:51;16.10;;;7.40;;
72590;SDS011;60625;51.212;5.952;2024-01-06T08:47:51;14.80;;;6.50;;
72590;SDS011;60625;51.212;5.952;2024-01-06T08:52:52;13.40;;;6.30;;
72590;SDS011;60625;51.212;5.952;2024-01-06T08:57:52;11.10;;;5.10;;
72590;SDS011;60625;51.212;5.952;2024-01-06T09:02:53;13.60;;;6.10;;
72590;SDS011;60625;51.212;5.952;2024-01-06T09:07:53;14.90;;;6.80;;
72590;SDS011;60625;51.212;5.952;2024-01-06T09:12:54;13.90;;;6.20;;
72590;SDS011;60625;51.212;5.952;2024-01-06T09:17:55;17.00;;;7.50;;
72590;SDS011;60625;51.212;5.952;2024-01-06T09:22:55;13.30;;;6.40;;
72590;SDS011;60625;51.212;5.952;2024-01-06T09:27:56;14.20;;;6.50;;
72590;SDS011;60625;51.212;5.952;2024-01-06T09:32:57;15.00;;;6.90;;
72590;SDS011;60625;51.212;5.952;2024-01-06T09:37:58;16.10;;;7.30;;
72590;SDS011;60625;51.212;5.952;2024-01-06T09:42:58;14.50;;;6.40;;
72590;SDS011;60625;51.212;5.952;2024-01-06T09:48:04;12.90;;;5.60;;
72590;SDS011;60625;51.212;5.952;2024-01-06T09:53:15;15.40;;;5.90;;
72590;SDS011;60625;51.212;5.952;2024-01-06T09:58:17;16.90;;;7.40;;
72590;SDS011;60625;51.212;5.952;2024-01-06T10:03:18;12.90;;;5.90;;
72590;SDS011;60625;51.212;5.952;2024-01-06T10:08:18;18.10;;;7.80;;
72590;SDS011;60625;51.212;5.952;2024-01-06T10:13:19;16.20;;;7.10;;
72590;SDS011;60625;51.212;5.952;2024-01-06T10:18:19;16.80;;;8.30;;
72590;SDS011;60625;51.212;5.952;2024-01-06T10:23:28;18.30;;;8.20;;
72590;SDS011;60625;51.212;5.952;2024-01-06T10:28:30;19.60;;;8.00;;
72590;SDS011;60625;51.212;5.952;2024-01-06T10:33:32;15.60;;;8.20;;
72590;SDS011;60625;51.212;5.952;2024-01-06T10:38:33;15.10;;;7.80;;
72590;SDS011;60625;51.212;5.952;2024-01-06T10:43:35;17.30;;;8.00;;
72590;SDS011;60625;51.212;5.952;2024-01-06T10:48:40;12.40;;;6.20;;
72590;SDS011;60625;51.212;5.952;2024-01-06T10:53:44;16.60;;;8.00;;
72590;SDS011;60625;51.212;5.952;2024-01-06T10:58:46;15.80;;;7.60;;
72590;SDS011;60625;51.212;5.952;2024-01-06T11:03:50;17.00;;;7.90;;
72590;SDS011;60625;51.212;5.952;2024-01-06T11:08:57;15.90;;;8.00;;
72590;SDS011;60625;51.212;5.952;2024-01-06T11:14:25;18.00;;;8.60;;
72590;SDS011;60625;51.212;5.952;2024-01-06T11:24:43;13.60;;;7.00;;
72590;SDS011;60625;51.212;5.952;2024-01-06T11:29:51;19.40;;;10.00;;
72590;SDS011;60625;51.212;5.952;2024-01-06T11:34:55;18.50;;;8.70;;
72590;SDS011;60625;51.212;5.952;2024-01-06T11:39:58;17.70;;;8.30;;
72590;SDS011;60625;51.212;5.952;2024-01-06T11:45:04;19.20;;;10.50;;
72590;SDS011;60625;51.212;5.952;2024-01-06T11:50:06;17.90;;;9.10;;
72590;SDS011;60625;51.212;5.952;2024-01-06T11:55:08;22.10;;;10.30;;
72590;SDS011;60625;51.212;5.952;2024-01-06T12:00:11;19.70;;;9.50;;
72590;SDS011;60625;51.212;5.952;2024-01-06T12:05:18;20.90;;;8.80;;
72590;SDS011;60625;51.212;5.952;2024-01-06T12:10:23;19.10;;;9.50;;
72590;SDS011;60625;51.212;5.952;2024-01-06T12:15:24;20.30;;;9.70;;
72590;SDS011;60625;51.212;5.952;2024-01-06T12:20:26;19.60;;;9.30;;
72590;SDS011;60625;51.212;5.952;2024-01-06T12:25:28;17.40;;;8.00;;
72590;SDS011;60625;51.212;5.952;2024-01-06T12:30:34;20.60;;;10.00;;
72590;SDS011;60625;51.212;5.952;2024-01-06T12:35:35;21.30;;;8.80;;
72590;SDS011;60625;51.212;5.952;2024-01-06T12:40:37;19.20;;;9.00;;
72590;SDS011;60625;51.212;5.952;2024-01-06T12:45:37;19.00;;;9.00;;
72590;SDS011;60625;51.212;5.952;2024-01-06T12:50:38;21.40;;;10.00;;
72590;SDS011;60625;51.212;5.952;2024-01-06T12:55:38;21.00;;;9.10;;
72590;SDS011;60625;51.212;5.952;2024-01-06T13:00:40;18.70;;;10.30;;
72590;SDS011;60625;51.212;5.952;2024-01-06T13:05:40;14.70;;;7.60;;
72590;SDS011;60625;51.212;5.952;2024-01-06T13:10:41;15.00;;;7.60;;
72590;SDS011;60625;51.212;5.952;2024-01-06T13:15:41;19.40;;;8.30;;
72590;SDS011;60625;51.212;5.952;2024-01-06T13:20:42;16.70;;;8.50;;
72590;SDS011;60625;51.212;5.952;2024-01-06T13:25:43;20.00;;;8.40;;
72590;SDS011;60625;51.212;5.952;2024-01-06T13:30:45;15.90;;;7.50;;
72590;SDS011;60625;51.212;5.952;2024-01-06T13:35:46;14.00;;;6.80;;
72590;SDS011;60625;51.212;5.952;2024-01-06T13:40:47;13.20;;;7.20;;
72590;SDS011;60625;51.212;5.952;2024-01-06T13:45:47;15.70;;;8.30;;
72590;SDS011;60625;51.212;5.952;2024-01-06T13:50:48;17.60;;;9.00;;
72590;SDS011;60625;51.212;5.952;2024-01-06T13:55:48;17.50;;;9.70;;
72590;SDS011;60625;51.212;5.952;2024-01-06T14:00:49;17.10;;;8.80;;
72590;SDS011;60625;51.212;5.952;2024-01-06T14:05:50;17.00;;;9.10;;
72590;SDS011;60625;51.212;5.952;2024-01-06T14:10:51;17.60;;;8.50;;
72590;SDS011;60625;51.212;5.952;2024-01-06T14:15:52;15.70;;;8.50;;
72590;SDS011;60625;51.212;5.952;2024-01-06T14:20:52;16.30;;;8.80;;
72590;SDS011;60625;51.212;5.952;2024-01-06T14:25:55;18.10;;;9.10;;
72590;SDS011;60625;51.212;5.952;2024-01-06T14:30:56;14.50;;;7.20;;
72590;SDS011;60625;51.212;5.952;2024-01-06T14:35:56;17.10;;;8.80;;
72590;SDS011;60625;51.212;5.952;2024-01-06T14:40:57;16.60;;;8.90;;
72590;SDS011;60625;51.212;5.952;2024-01-06T14:45:57;17.70;;;8.90;;
72590;SDS011;60625;51.212;5.952;2024-01-06T14:50:58;17.10;;;8.40;;
72590;SDS011;60625;51.212;5.952;2024-01-06T14:56:00;15.10;;;8.30;;
72590;SDS011;60625;51.212;5.952;2024-01-06T15:01:01;26.20;;;10.10;;
72590;SDS011;60625;51.212;5.952;2024-01-06T15:06:01;16.30;;;8.30;;
72590;SDS011;60625;51.212;5.952;2024-01-06T15:11:02;16.00;;;9.00;;
72590;SDS011;60625;51.212;5.952;2024-01-06T15:16:03;18.90;;;9.90;;
72590;SDS011;60625;51.212;5.952;2024-01-06T15:21:05;15.30;;;7.90;;
72590;SDS011;60625;51.212;5.952;2024-01-06T15:26:05;16.50;;;8.40;;
72590;SDS011;60625;51.212;5.952;2024-01-06T15:31:06;17.30;;;9.20;;
72590;SDS011;60625;51.212;5.952;2024-01-06T15:36:08;20.50;;;9.60;;
72590;SDS011;60625;51.212;5.952;2024-01-06T15:41:09;19.80;;;10.00;;
72590;SDS011;60625;51.212;5.952;2024-01-06T15:46:09;19.60;;;9.80;;
72590;SDS011;60625;51.212;5.952;2024-01-06T15:51:10;19.50;;;10.10;;
72590;SDS011;60625;51.212;5.952;2024-01-06T15:56:11;20.30;;;9.60;;
72590;SDS011;60625;51.212;5.952;2024-01-06T16:01:12;23.80;;;13.30;;
72590;SDS011;60625;51.212;5.952;2024-01-06T16:06:13;21.30;;;10.00;;
72590;SDS011;60625;51.212;5.952;2024-01-06T16:11:13;20.40;;;10.30;;
72590;SDS011;60625;51.212;5.952;2024-01-06T16:16:13;21.10;;;10.70;;
72590;SDS011;60625;51.212;5.952;2024-01-06T16:21:25;21.70;;;11.20;;
72590;SDS011;60625;51.212;5.952;2024-01-06T16:26:26;20.40;;;11.30;;
72590;SDS011;60625;51.212;5.952;2024-01-06T16:31:27;21.40;;;10.00;;
72590;SDS011;60625;51.212;5.952;2024-01-06T16:36:28;22.80;;;11.70;;
72590;SDS011;60625;51.212;5.952;2024-01-06T16:41:28;23.60;;;12.70;;
72590;SDS011;60625;51.212;5.952;2024-01-06T16:46:29;24.30;;;12.30;;
72590;SDS011;60625;51.212;5.952;2024-01-06T16:51:29;25.20;;;13.20;;
72590;SDS011;60625;51.212;5.952;2024-01-06T16:56:30;24.60;;;12.50;;
72590;SDS011;60625;51.212;5.952;2024-01-06T17:01:31;27.60;;;12.10;;
72590;SDS011;60625;51.212;5.952;2024-01-06T17:06:31;27.20;;;13.20;;
72590;SDS011;60625;51.212;5.952;2024-01-06T17:11:32;23.20;;;11.00;;
72590;SDS011;60625;51.212;5.952;2024-01-06T17:16:32;25.70;;;12.30;;
72590;SDS011;60625;51.212;5.952;2024-01-06T17:21:34;24.90;;;13.10;;
72590;SDS011;60625;51.212;5.952;2024-01-06T17:26:35;22.80;;;11.40;;
72590;SDS011;60625;51.212;5.952;2024-01-06T17:31:36;25.30;;;12.10;;
72590;SDS011;60625;51.212;5.952;2024-01-06T17:36:37;24.20;;;12.10;;
72590;SDS011;60625;51.212;5.952;2024-01-06T17:41:38;29.90;;;14.40;;
72590;SDS011;60625;51.212;5.952;2024-01-06T17:46:38;26.70;;;12.70;;
72590;SDS011;60625;51.212;5.952;2024-01-06T17:51:39;28.70;;;12.10;;
72590;SDS011;60625;51.212;5.952;2024-01-06T17:56:39;32.90;;;15.50;;
72590;SDS011;60625;51.212;5.952;2024-01-06T18:01:40;27.90;;;14.10;;
72590;SDS011;60625;51.212;5.952;2024-01-06T18:06:41;28.20;;;13.60;;
72590;SDS011;60625;51.212;5.952;2024-01-06T18:11:43;28.50;;;12.80;;
72590;SDS011;60625;51.212;5.952;2024-01-06T18:16:45;31.20;;;14.40;;
72590;SDS011;60625;51.212;5.952;2024-01-06T18:21:46;33.60;;;14.50;;
72590;SDS011;60625;51.212;5.952;2024-01-06T18:26:46;23.40;;;12.00;;
72590;SDS011;60625;51.212;5.952;2024-01-06T18:31:48;24.30;;;11.80;;
72590;SDS011;60625;51.212;5.952;2024-01-06T18:36:49;30.30;;;13.70;;
72590;SDS011;60625;51.212;5.952;2024-01-06T18:41:50;28.30;;;13.70;;
72590;SDS011;60625;51.212;5.952;2024-01-06T18:46:50;26.90;;;12.90;;
72590;SDS011;60625;51.212;5.952;2024-01-06T18:51:51;27.30;;;13.20;;
72590;SDS011;60625;51.212;5.952;2024-01-06T18:56:51;27.30;;;13.10;;
72590;SDS011;60625;51.212;5.952;2024-01-06T19:01:52;28.20;;;13.00;;
72590;SDS011;60625;51.212;5.952;2024-01-06T19:06:52;26.80;;;12.80;;
72590;SDS011;60625;51.212;5.952;2024-01-06T19:11:53;29.20;;;13.10;;
72590;SDS011;60625;51.212;5.952;2024-01-06T19:16:53;26.10;;;11.60;;
72590;SDS011;60625;51.212;5.952;2024-01-06T19:21:54;28.40;;;12.70;;
72590;SDS011;60625;51.212;5.952;2024-01-06T19:26:55;28.80;;;13.80;;
72590;SDS011;60625;51.212;5.952;2024-01-06T19:31:57;28.80;;;14.90;;
72590;SDS011;60625;51.212;5.952;2024-01-06T19:36:57;33.50;;;14.80;;
72590;SDS011;60625;51.212;5.952;2024-01-06T19:41:58;32.10;;;15.50;;
72590;SDS011;60625;51.212;5.952;2024-01-06T19:46:58;31.40;;;16.20;;
72590;SDS011;60625;51.212;5.952;2024-01-06T19:52:00;29.80;;;14.60;;
72590;SDS011;60625;51.212;5.952;2024-01-06T19:57:01;28.50;;;13.00;;
72590;SDS011;60625;51.212;5.952;2024-01-06T20:02:03;29.20;;;15.00;;
72590;SDS011;60625;51.212;5.952;2024-01-06T20:07:04;27.90;;;14.50;;
72590;SDS011;60625;51.212;5.952;2024-01-06T20:12:05;24.70;;;12.70;;
72590;SDS011;60625;51.212;5.952;2024-01-06T20:17:06;28.10;;;13.60;;
72590;SDS011;60625;51.212;5.952;2024-01-06T20:22:10;27.20;;;13.00;;
72590;SDS011;60625;51.212;5.952;2024-01-06T20:27:10;29.00;;;14.10;;
72590;SDS011;60625;51.212;5.952;2024-01-06T20:32:11;31.50;;;14.90;;
72590;SDS011;60625;51.212;5.952;2024-01-06T20:37:11;29.40;;;15.00;;
72590;SDS011;60625;51.212;5.952;2024-01-06T20:42:15;31.20;;;14.60;;
72590;SDS011;60625;51.212;5.952;2024-01-06T20:47:15;28.50;;;13.90;;
72590;SDS011;60625;51.212;5.952;2024-01-06T20:52:16;30.80;;;15.60;;
72590;SDS011;60625;51.212;5.952;2024-01-06T20:57:17;33.50;;;15.80;;
72590;SDS011;60625;51.212;5.952;2024-01-06T21:02:17;28.20;;;14.40;;
72590;SDS011;60625;51.212;5.952;2024-01-06T21:07:20;30.30;;;13.00;;
72590;SDS011;60625;51.212;5.952;2024-01-06T21:12:21;28.20;;;12.50;;
72590;SDS011;60625;51.212;5.952;2024-01-06T21:17:21;21.50;;;11.50;;
72590;SDS011;60625;51.212;5.952;2024-01-06T21:22:22;28.70;;;12.80;;
72590;SDS011;60625;51.212;5.952;2024-01-06T21:27:22;26.80;;;13.90;;
72590;SDS011;60625;51.212;5.952;2024-01-06T21:32:23;26.80;;;11.90;;
72590;SDS011;60625;51.212;5.952;2024-01-06T21:37:24;24.90;;;12.90;;
72590;SDS011;60625;51.212;5.952;2024-01-06T21:42:25;27.10;;;13.30;;
72590;SDS011;60625;51.212;5.952;2024-01-06T21:47:26;22.10;;;12.20;;
72590;SDS011;60625;51.212;5.952;2024-01-06T21:52:26;20.90;;;10.60;;
72590;SDS011;60625;51.212;5.952;2024-01-06T21:57:27;23.40;;;12.20;;
72590;SDS011;60625;51.212;5.952;2024-01-06T22:02:27;20.50;;;10.80;;
72590;SDS011;60625;51.212;5.952;2024-01-06T22:07:28;25.00;;;13.30;;
72590;SDS011;60625;51.212;5.952;2024-01-06T22:12:30;26.30;;;13.90;;
72590;SDS011;60625;51.212;5.952;2024-01-06T22:17:30;25.70;;;12.00;;
72590;SDS011;60625;51.212;5.952;2024-01-06T22:22:31;24.70;;;12.40;;
72590;SDS011;60625;51.212;5.952;2024-01-06T22:27:31;26.70;;;14.20;;
72590;SDS011;60625;51.212;5.952;2024-01-06T22:32:32;25.40;;;12.90;;
72590;SDS011;60625;51.212;5.952;2024-01-06T22:37:33;24.90;;;13.30;;
72590;SDS011;60625;51.212;5.952;2024-01-06T22:42:33;25.70;;;12.70;;
72590;SDS011;60625;51.212;5.952;2024-01-06T22:47:34;26.60;;;14.30;;
72590;SDS011;60625;51.212;5.952;2024-01-06T22:52:34;27.10;;;13.70;;
72590;SDS011;60625;51.212;5.952;2024-01-06T22:57:34;27.80;;;13.80;;
72590;SDS011;60625;51.212;5.952;2024-01-06T23:02:37;25.60;;;13.50;;
72590;SDS011;60625;51.212;5.952;2024-01-06T23:07:37;30.20;;;14.80;;
72590;SDS011;60625;51.212;5.952;2024-01-06T23:12:38;28.70;;;13.00;;
72590;SDS011;60625;51.212;5.952;2024-01-06T23:17:38;27.90;;;14.10;;
72590;SDS011;60625;51.212;5.952;2024-01-06T23:22:39;26.00;;;12.40;;
72590;SDS011;60625;51.212;5.952;2024-01-06T23:27:40;28.20;;;13.80;;
72590;SDS011;60625;51.212;5.952;2024-01-06T23:32:41;24.00;;;11.50;;
72590;SDS011;60625;51.212;5.952;2024-01-06T23:37:42;24.90;;;12.90;;
72590;SDS011;60625;51.212;5.952;2024-01-06T23:42:43;31.20;;;14.20;;
72590;SDS011;60625;51.212;5.952;2024-01-06T23:47:44;28.90;;;15.00;;
72590;SDS011;60625;51.212;5.952;2024-01-06T23:52:44;28.50;;;13.60;;
72590;SDS011;60625;51.212;5.952;2024-01-06T23:57:45;27.70;;;13.80;;
